createdAt,value
2022-07-29T00:01:58.230Z,97611.09
2022-07-29T00:05:00.356Z,97609.09
2022-07-29T00:08:02.413Z,97614.88
2022-07-29T00:11:05.084Z,97620.88
2022-07-29T00:14:07.138Z,97617.03
2022-07-29T00:17:09.237Z,97616.50
2022-07-29T00:20:11.591Z,97620.69
2022-07-29T00:23:13.827Z,97618.66
2022-07-29T00:26:15.941Z,97620.34
2022-07-29T00:29:33.646Z,97612.00
2022-07-29T00:32:36.740Z,97616.31
2022-07-29T00:35:44.936Z,97605.28
2022-07-29T00:38:47.381Z,97604.16
2022-07-29T00:41:50.036Z,97603.66
2022-07-29T00:44:52.208Z,97606.31
2022-07-29T00:47:54.311Z,97605.28
2022-07-29T00:50:59.500Z,97598.09
2022-07-29T00:54:01.641Z,97593.59
2022-07-29T00:57:03.832Z,97596.72
2022-07-29T01:04:30.977Z,97589.34
2022-07-29T01:07:38.172Z,97593.59
2022-07-29T01:10:42.175Z,97594.22
2022-07-29T01:13:45.640Z,97591.56
2022-07-29T01:16:56.595Z,97591.38
2022-07-29T01:20:15.413Z,97590.53
2022-07-29T01:23:42.502Z,97590.69
2022-07-29T01:26:53.715Z,97593.09
2022-07-29T01:30:00.872Z,97596.09
2022-07-29T01:33:11.266Z,97599.72
2022-07-29T01:36:17.606Z,97590.22
2022-07-29T01:39:19.621Z,97594.72
2022-07-29T01:42:25.222Z,97587.56
2022-07-29T01:45:32.536Z,97590.38
2022-07-29T01:48:46.995Z,97601.31
2022-07-29T01:51:54.219Z,97590.19
2022-07-29T01:54:59.949Z,97590.63
2022-07-29T01:58:06.294Z,97593.13
2022-07-29T02:01:11.009Z,97596.47
2022-07-29T02:04:29.623Z,97598.59
2022-07-29T02:07:37.863Z,97599.22
2022-07-29T02:10:43.460Z,97603.84
2022-07-29T02:13:47.657Z,97609.19
2022-07-29T02:16:54.930Z,97602.88
2022-07-29T02:20:00.419Z,97609.47
2022-07-29T02:23:03.769Z,97605.31
2022-07-29T02:26:07.478Z,97605.78
2022-07-29T02:29:11.226Z,97601.75
2022-07-29T02:32:16.471Z,97603.03
2022-07-29T02:35:20.050Z,97600.38
2022-07-29T02:38:42.544Z,97604.44
2022-07-29T02:41:54.107Z,97603.03
2022-07-29T02:44:57.098Z,97601.53
2022-07-29T02:48:02.036Z,97594.53
2022-07-29T02:51:13.383Z,97592.50
2022-07-29T02:54:43.686Z,97591.25
2022-07-29T02:57:55.711Z,97592.28
2022-07-29T03:01:10.119Z,97596.56
2022-07-29T03:04:14.678Z,97592.44
2022-07-29T03:07:21.446Z,97595.53
2022-07-29T03:10:25.042Z,97595.00
2022-07-29T03:13:28.821Z,97592.50
2022-07-29T03:16:31.322Z,97598.81
2022-07-29T03:19:33.698Z,97600.06
2022-07-29T03:22:44.801Z,97598.41
2022-07-29T03:25:47.780Z,97594.06
2022-07-29T03:28:50.004Z,97589.75
2022-07-29T03:31:52.329Z,97599.25
2022-07-29T03:34:54.331Z,97590.00
2022-07-29T03:37:56.493Z,97597.28
2022-07-29T03:41:03.017Z,97593.63
2022-07-29T03:44:08.076Z,97593.94
2022-07-29T03:47:12.323Z,97591.41
2022-07-29T03:50:16.545Z,97595.06
2022-07-29T03:53:19.268Z,97594.47
2022-07-29T03:56:24.801Z,97590.50
2022-07-29T03:59:28.324Z,97598.88
2022-07-29T04:02:31.022Z,97600.53
2022-07-29T04:05:33.204Z,97595.22
2022-07-29T04:08:36.118Z,97604.88
2022-07-29T04:12:02.496Z,97601.91
2022-07-29T04:15:06.177Z,97600.06
2022-07-29T04:18:08.305Z,97602.44
2022-07-29T04:21:10.333Z,97610.81
2022-07-29T04:24:12.651Z,97601.66
2022-07-29T04:27:14.860Z,97601.91
2022-07-29T04:30:16.833Z,97608.72
2022-07-29T04:33:18.926Z,97605.78
2022-07-29T04:36:29.260Z,97596.81
2022-07-29T04:39:32.090Z,97605.19
2022-07-29T04:42:34.070Z,97605.22
2022-07-29T04:45:47.104Z,97603.31
2022-07-29T04:48:49.542Z,97599.50
2022-07-29T04:51:51.607Z,97607.22
2022-07-29T04:54:53.702Z,97599.84
2022-07-29T04:57:55.784Z,97605.94
2022-07-29T05:00:57.936Z,97605.06
2022-07-29T05:04:00.810Z,97614.81
2022-07-29T05:07:03.055Z,97617.34
2022-07-29T05:10:05.690Z,97616.25
2022-07-29T05:13:08.834Z,97622.84
2022-07-29T05:16:10.977Z,97615.41
2022-07-29T05:19:14.529Z,97618.06
2022-07-29T05:22:16.846Z,97616.59
2022-07-29T05:25:19.019Z,97617.59
2022-07-29T05:28:21.129Z,97612.09
2022-07-29T05:31:23.243Z,97616.28
2022-07-29T05:34:26.231Z,97621.25
2022-07-29T05:37:28.337Z,97621.34
2022-07-29T05:40:30.610Z,97619.44
2022-07-29T05:43:33.053Z,97625.84
2022-07-29T05:46:35.160Z,97629.31
2022-07-29T05:49:38.013Z,97631.06
2022-07-29T05:52:40.339Z,97632.13
2022-07-29T05:55:42.395Z,97635.72
2022-07-29T05:58:44.525Z,97635.94
2022-07-29T06:01:49.758Z,97634.88
2022-07-29T06:04:51.944Z,97629.00
2022-07-29T06:07:54.432Z,97637.91
2022-07-29T06:10:56.487Z,97637.44
2022-07-29T06:13:58.536Z,97645.38
2022-07-29T06:17:00.614Z,97640.78
2022-07-29T06:20:04.045Z,97648.09
2022-07-29T06:23:06.131Z,97639.59
2022-07-29T06:26:08.235Z,97637.00
2022-07-29T06:29:11.869Z,97632.97
2022-07-29T06:32:13.979Z,97629.47
2022-07-29T06:38:40.392Z,97642.38
2022-07-29T06:41:51.635Z,97652.25
2022-07-29T06:44:53.870Z,97649.94
2022-07-29T06:47:55.964Z,97650.47
2022-07-29T06:50:58.321Z,97650.66
2022-07-29T06:54:12.827Z,97647.59
2022-07-29T06:57:15.286Z,97668.06
2022-07-29T07:00:17.519Z,97660.59
2022-07-29T07:03:20.592Z,97658.91
2022-07-29T07:06:22.733Z,97664.00
2022-07-29T07:09:24.734Z,97665.53
2022-07-29T07:12:42.097Z,97667.91
2022-07-29T07:15:45.289Z,97652.19
2022-07-29T07:18:47.368Z,97659.34
2022-07-29T07:21:49.454Z,97656.03
2022-07-29T07:24:51.665Z,97659.06
2022-07-29T07:27:53.816Z,97656.66
2022-07-29T07:30:56.194Z,97662.41
2022-07-29T07:33:58.449Z,97657.50
2022-07-29T07:37:00.567Z,97665.81
2022-07-29T07:40:04.367Z,97664.44
2022-07-29T07:43:06.467Z,97664.84
2022-07-29T07:46:08.645Z,97667.69
2022-07-29T07:49:11.199Z,97659.09
2022-07-29T07:52:13.323Z,97657.88
2022-07-29T07:55:15.575Z,97670.31
2022-07-29T07:58:17.618Z,97665.25
2022-07-29T08:01:22.368Z,97665.72
2022-07-29T08:04:28.363Z,97674.44
2022-07-29T08:07:31.416Z,97678.47
2022-07-29T08:10:52.863Z,97674.66
2022-07-29T08:13:54.863Z,97673.31
2022-07-29T08:16:57.098Z,97672.00
2022-07-29T08:19:59.132Z,97675.38
2022-07-29T08:23:01.274Z,97665.75
2022-07-29T08:26:03.297Z,97661.75
2022-07-29T08:29:05.977Z,97668.81
2022-07-29T08:32:08.280Z,97667.41
2022-07-29T08:35:10.821Z,97668.00
2022-07-29T08:38:12.917Z,97667.78
2022-07-29T08:41:14.947Z,97664.94
2022-07-29T08:44:18.420Z,97672.41
2022-07-29T08:47:31.067Z,97664.19
2022-07-29T08:50:36.302Z,97667.56
2022-07-29T08:53:39.323Z,97662.66
2022-07-29T08:56:42.200Z,97662.22
2022-07-29T08:59:47.224Z,97667.44
2022-07-29T09:02:54.938Z,97659.94
2022-07-29T09:05:57.294Z,97660.19
2022-07-29T09:09:00.719Z,97661.88
2022-07-29T09:12:02.954Z,97665.09
2022-07-29T09:15:05.250Z,97656.91
2022-07-29T09:18:07.425Z,97657.22
2022-07-29T09:21:31.184Z,97654.09
2022-07-29T09:24:36.610Z,97664.19
2022-07-29T09:27:38.849Z,97670.47
2022-07-29T09:30:55.603Z,97665.91
2022-07-29T09:33:59.540Z,97662.59
2022-07-29T09:37:01.758Z,97673.56
2022-07-29T09:40:13.378Z,97669.22
2022-07-29T09:43:15.573Z,97662.16
2022-07-29T09:46:17.714Z,97654.09
2022-07-29T09:49:19.799Z,97648.53
2022-07-29T09:52:22.693Z,97655.47
2022-07-29T09:55:25.201Z,97652.50
2022-07-29T09:58:28.496Z,97649.97
2022-07-29T10:01:30.681Z,97645.03
2022-07-29T10:04:43.809Z,97651.16
2022-07-29T10:07:54.053Z,97652.84
2022-07-29T10:11:11.101Z,97655.72
2022-07-29T10:14:13.246Z,97649.56
2022-07-29T10:17:16.792Z,97643.00
2022-07-29T10:20:19.297Z,97633.69
2022-07-29T10:23:21.995Z,97633.16
2022-07-29T10:26:24.705Z,97650.72
2022-07-29T10:29:27.646Z,97643.19
2022-07-29T10:32:54.114Z,97640.28
2022-07-29T10:36:18.595Z,97631.25
2022-07-29T10:39:50.084Z,97631.34
2022-07-29T10:42:54.810Z,97629.59
2022-07-29T10:45:59.867Z,97628.38
2022-07-29T10:52:53.889Z,97627.91
2022-07-29T10:55:56.470Z,97616.16
2022-07-29T10:59:22.715Z,97621.81
2022-07-29T11:02:54.465Z,97614.56
2022-07-29T11:09:35.122Z,97609.88
2022-07-29T11:12:40.343Z,97600.06
2022-07-29T11:15:56.037Z,97598.22
2022-07-29T11:19:13.769Z,97601.44
2022-07-29T11:22:35.742Z,97587.28
2022-07-29T11:25:50.237Z,97590.72
2022-07-29T11:29:07.374Z,97589.88
2022-07-29T11:32:22.884Z,97586.78
2022-07-29T11:35:37.636Z,97583.25
2022-07-29T11:38:43.154Z,97578.09
2022-07-29T11:41:45.289Z,97575.91
2022-07-29T11:45:41.556Z,97578.38
2022-07-29T11:48:32.391Z,97570.91
2022-07-29T11:51:38.361Z,97556.97
2022-07-29T11:54:58.291Z,97561.91
2022-07-29T11:58:03.999Z,97559.53
2022-07-29T12:01:07.547Z,97550.56
2022-07-29T12:04:09.610Z,97540.72
2022-07-29T12:07:15.694Z,97548.34
2022-07-29T12:10:20.007Z,97545.16
2022-07-29T12:13:41.150Z,97549.31
2022-07-29T12:16:43.301Z,97551.19
2022-07-29T12:19:46.438Z,97556.78
2022-07-29T12:22:50.460Z,97555.06
2022-07-29T12:25:53.310Z,97550.88
2022-07-29T12:28:56.245Z,97553.88
2022-07-29T12:31:59.893Z,97548.56
2022-07-29T12:35:11.298Z,97540.09
2022-07-29T12:38:14.488Z,97537.09
2022-07-29T12:41:16.750Z,97525.50
2022-07-29T12:44:18.865Z,97537.66
2022-07-29T12:47:21.899Z,97545.75
2022-07-29T12:50:26.405Z,97544.31
2022-07-29T12:53:29.454Z,97535.91
2022-07-29T12:56:47.065Z,97544.16
2022-07-29T13:00:12.206Z,97546.16
2022-07-29T13:03:14.339Z,97546.84
2022-07-29T13:06:39.572Z,97552.16
2022-07-29T13:09:46.682Z,97554.72
2022-07-29T13:13:07.440Z,97565.25
2022-07-29T13:16:09.541Z,97558.97
2022-07-29T13:19:13.781Z,97557.19
2022-07-29T13:22:18.380Z,97565.03
2022-07-29T13:25:32.995Z,97573.66
2022-07-29T13:28:35.480Z,97585.22
2022-07-29T13:31:37.542Z,97587.16
2022-07-29T13:34:39.761Z,97588.25
2022-07-29T13:37:41.952Z,97610.38
2022-07-29T13:40:44.196Z,97621.47
2022-07-29T13:43:46.825Z,97634.03
2022-07-29T13:46:52.415Z,97656.34
2022-07-29T13:49:54.851Z,97657.53
2022-07-29T13:52:56.949Z,97661.41
2022-07-29T13:55:58.992Z,97668.31
2022-07-29T13:59:01.359Z,97666.69
2022-07-29T14:02:04.133Z,97662.13
2022-07-29T14:05:08.824Z,97655.19
2022-07-29T14:08:11.061Z,97653.88
2022-07-29T14:11:13.175Z,97656.34
2022-07-29T14:14:15.253Z,97648.03
2022-07-29T14:17:17.439Z,97638.41
2022-07-29T14:20:19.660Z,97640.97
2022-07-29T14:23:21.781Z,97637.91
2022-07-29T14:26:24.249Z,97623.81
2022-07-29T14:29:37.721Z,97611.59
2022-07-29T14:32:40.393Z,97605.66
2022-07-29T14:35:42.517Z,97609.53
2022-07-29T14:38:44.713Z,97612.94
2022-07-29T14:41:46.778Z,97606.28
2022-07-29T14:44:50.505Z,97607.97
2022-07-29T14:47:56.507Z,97591.47
2022-07-29T14:51:04.409Z,97581.59
2022-07-29T14:54:06.962Z,97570.72
2022-07-29T14:57:09.880Z,97557.44
2022-07-29T15:00:12.843Z,97554.78
2022-07-29T15:03:24.274Z,97550.72
2022-07-29T15:06:27.997Z,97541.22
2022-07-29T15:09:30.019Z,97542.06
2022-07-29T15:12:32.772Z,97537.91
2022-07-29T15:15:34.800Z,97546.78
2022-07-29T15:18:38.861Z,97553.00
2022-07-29T15:21:41.699Z,97547.13
2022-07-29T15:24:50.435Z,97537.75
2022-07-29T15:27:54.702Z,97536.09
2022-07-29T15:30:58.665Z,97537.53
2022-07-29T15:34:05.131Z,97537.75
2022-07-29T15:37:08.761Z,97541.47
2022-07-29T15:40:11.527Z,97538.13
2022-07-29T15:43:13.820Z,97535.66
2022-07-29T15:46:36.041Z,97534.63
2022-07-29T15:49:47.111Z,97539.84
2022-07-29T15:52:52.045Z,97535.31
2022-07-29T15:55:54.099Z,97536.34
2022-07-29T15:58:56.506Z,97529.97
2022-07-29T16:01:59.482Z,97526.06
2022-07-29T16:05:01.586Z,97524.84
2022-07-29T16:08:03.639Z,97514.69
2022-07-29T16:11:05.701Z,97514.47
2022-07-29T16:14:08.037Z,97510.16
2022-07-29T16:17:14.343Z,97503.16
2022-07-29T16:20:17.304Z,97496.38
2022-07-29T16:23:19.673Z,97497.66
2022-07-29T16:26:21.725Z,97490.34
2022-07-29T16:29:23.846Z,97481.09
2022-07-29T16:32:25.979Z,97487.94
2022-07-29T16:35:39.584Z,97487.00
2022-07-29T16:38:47.508Z,97490.56
2022-07-29T16:41:49.899Z,97489.03
2022-07-29T16:44:51.898Z,97488.50
2022-07-29T16:47:59.884Z,97486.44
2022-07-29T16:51:02.609Z,97487.97
2022-07-29T16:54:04.650Z,97497.28
2022-07-29T16:57:06.850Z,97487.78
2022-07-29T17:00:09.946Z,97484.50
2022-07-29T17:03:12.805Z,97481.81
2022-07-29T17:06:15.688Z,97481.16
2022-07-29T17:09:17.792Z,97481.13
2022-07-29T17:12:19.976Z,97488.50
2022-07-29T17:15:22.244Z,97494.91
2022-07-29T17:18:27.861Z,97481.97
2022-07-29T17:21:31.101Z,97471.91
2022-07-29T17:24:33.749Z,97473.25
2022-07-29T17:27:36.855Z,97477.53
2022-07-29T17:30:38.872Z,97476.00
2022-07-29T17:33:40.854Z,97487.78
2022-07-29T17:36:42.934Z,97473.28
2022-07-29T17:39:45.220Z,97492.63
2022-07-29T17:42:47.463Z,97491.03
2022-07-29T17:45:50.898Z,97494.19
2022-07-29T17:48:57.267Z,97490.78
2022-07-29T17:52:01.085Z,97494.06
2022-07-29T17:55:03.346Z,97494.09
2022-07-29T17:58:08.640Z,97508.31
2022-07-29T18:01:11.143Z,97504.00
2022-07-29T18:04:13.332Z,97510.56
2022-07-29T18:07:15.345Z,97510.66
2022-07-29T18:10:17.415Z,97507.03
2022-07-29T18:13:19.669Z,97509.88
2022-07-29T18:16:21.803Z,97509.81
2022-07-29T18:19:23.818Z,97509.13
2022-07-29T18:22:25.913Z,97504.69
2022-07-29T18:25:29.056Z,97506.13
2022-07-29T18:28:32.977Z,97514.50
2022-07-29T18:31:35.116Z,97503.53
2022-07-29T18:34:37.249Z,97511.16
2022-07-29T18:38:00.894Z,97514.28
2022-07-29T18:41:01.389Z,97517.19
2022-07-29T18:44:03.452Z,97519.34
2022-07-29T18:47:06.581Z,97505.50
2022-07-29T18:50:11.605Z,97503.34
2022-07-29T18:53:13.646Z,97507.25
2022-07-29T18:56:15.784Z,97509.16
2022-07-29T18:59:20.043Z,97511.41
2022-07-29T19:02:22.926Z,97512.81
2022-07-29T19:05:25.322Z,97506.31
2022-07-29T19:08:27.449Z,97499.19
2022-07-29T19:11:29.497Z,97508.09
2022-07-29T19:14:31.903Z,97507.59
2022-07-29T19:17:33.912Z,97511.66
2022-07-29T19:20:36.189Z,97513.84
2022-07-29T19:24:01.861Z,97521.50
2022-07-29T19:27:00.584Z,97525.59
2022-07-29T19:30:05.173Z,97530.94
2022-07-29T19:33:07.552Z,97531.66
2022-07-29T19:36:09.816Z,97548.00
2022-07-29T19:39:12.049Z,97552.03
2022-07-29T19:42:14.102Z,97553.38
2022-07-29T19:45:16.112Z,97555.53
2022-07-29T19:48:18.201Z,97558.88
2022-07-29T19:51:20.368Z,97563.38
2022-07-29T19:54:22.481Z,97572.06
2022-07-29T19:57:24.551Z,97569.72
2022-07-29T20:00:28.302Z,97571.56
2022-07-29T20:03:33.142Z,97576.72
2022-07-29T20:06:35.259Z,97568.22
2022-07-29T20:09:37.567Z,97563.91
2022-07-29T20:12:39.659Z,97572.75
2022-07-29T20:15:41.939Z,97569.59
2022-07-29T20:18:44.026Z,97577.25
2022-07-29T20:21:46.092Z,97574.94
2022-07-29T20:24:48.348Z,97582.09
2022-07-29T20:27:52.689Z,97582.25
2022-07-29T20:30:54.783Z,97580.25
2022-07-29T20:33:56.800Z,97573.59
2022-07-29T20:36:58.977Z,97581.41
2022-07-29T20:40:03.590Z,97575.56
2022-07-29T20:43:06.205Z,97582.09
2022-07-29T20:46:08.429Z,97588.25
2022-07-29T20:49:10.593Z,97591.56
2022-07-29T20:52:12.926Z,97591.25
2022-07-29T20:55:14.976Z,97590.06
2022-07-29T20:58:18.971Z,97581.06
2022-07-29T21:01:21.135Z,97577.38
2022-07-29T21:04:23.200Z,97581.03
2022-07-29T21:07:32.955Z,97570.53
2022-07-29T21:10:35.380Z,97563.00
2022-07-29T21:13:40.282Z,97569.31
2022-07-29T21:16:42.345Z,97563.19
2022-07-29T21:19:44.517Z,97571.50
2022-07-29T21:22:46.560Z,97561.50
2022-07-29T21:25:48.671Z,97565.00
2022-07-29T21:28:50.721Z,97562.50
2022-07-29T21:31:52.779Z,97551.34
2022-07-29T21:34:54.898Z,97557.16
2022-07-29T21:37:56.983Z,97554.66
2022-07-29T21:40:59.590Z,97549.81
2022-07-29T21:44:01.654Z,97549.47
2022-07-29T21:47:05.852Z,97540.97
2022-07-29T21:50:08.305Z,97540.81
2022-07-29T21:53:13.854Z,97526.13
2022-07-29T21:56:18.136Z,97522.97
2022-07-29T21:59:20.237Z,97531.31
2022-07-29T22:02:22.323Z,97539.47
2022-07-29T22:05:24.336Z,97537.47
2022-07-29T22:08:26.442Z,97546.00
2022-07-29T22:11:28.578Z,97536.81
2022-07-29T22:14:30.599Z,97541.97
2022-07-29T22:17:33.051Z,97538.97
2022-07-29T22:20:35.131Z,97540.94
2022-07-29T22:23:37.185Z,97536.47
2022-07-29T22:26:39.185Z,97532.28
2022-07-29T22:29:41.333Z,97536.44
2022-07-29T22:32:43.664Z,97541.09
2022-07-29T22:35:48.599Z,97536.44
2022-07-29T22:38:52.057Z,97535.75
2022-07-29T22:41:54.524Z,97531.94
2022-07-29T22:44:56.713Z,97530.91
2022-07-29T22:47:59.166Z,97532.94
2022-07-29T22:51:01.614Z,97535.75
2022-07-29T22:54:04.603Z,97539.25
2022-07-29T22:57:06.870Z,97536.44
2022-07-29T23:00:09.732Z,97535.59
2022-07-29T23:03:11.804Z,97540.59
2022-07-29T23:06:14.192Z,97534.94
2022-07-29T23:09:16.588Z,97539.94
2022-07-29T23:12:18.595Z,97549.28
2022-07-29T23:15:20.682Z,97566.44
2022-07-29T23:18:22.867Z,97595.25
2022-07-29T23:21:26.433Z,97581.94
2022-07-29T23:24:28.526Z,97582.13
2022-07-29T23:27:30.675Z,97583.47
2022-07-29T23:30:32.900Z,97584.13
2022-07-29T23:33:34.923Z,97591.13
2022-07-29T23:36:37.001Z,97589.88
2022-07-29T23:39:39.125Z,97604.75
2022-07-29T23:42:42.430Z,97590.06
2022-07-29T23:45:45.224Z,97592.91
2022-07-29T23:48:50.988Z,97585.91
2022-07-29T23:51:53.028Z,97591.06
2022-07-29T23:54:55.210Z,97592.44
2022-07-29T23:58:17.210Z,97597.78
